Time;durP1;ratioP1;P1;durP2;ratioP2;P2;SDS_P1;SDS_P2;PMS_P1;PMS_P2;Temp;Humidity;BMP_temperature;BMP_pressure;BME280_temperature;BME280_humidity;BME280_pressure;Samples;Min_cycle;Max_cycle;Signal;HPM_P1;HPM_P2
2021/07/02 00:01:14;;;;;;;17.85;11.90;;;;;;;20.05;78.89;100718.13;1785430;80;21087;-64
2021/07/02 00:03:43;;;;;;;18.05;10.80;;;;;;;20.03;78.68;100717.41;1785594;80;21137;-64
2021/07/02 00:06:11;;;;;;;19.07;10.85;;;;;;;19.95;78.64;100713.14;1791176;78;21095;-63
2021/07/02 00:08:40;;;;;;;19.92;11.08;;;;;;;19.91;78.76;100714.86;1793332;80;21128;-63
2021/07/02 00:11:09;;;;;;;20.00;11.70;;;;;;;19.88;78.96;100717.76;1793039;80;21101;-64
2021/07/02 00:13:38;;;;;;;25.55;12.13;;;;;;;19.81;79.17;100719.59;1793239;80;21184;-65
2021/07/02 00:16:07;;;;;;;18.10;11.28;;;;;;;19.75;79.27;100720.54;1793266;80;21103;-64
2021/07/02 00:18:36;;;;;;;22.27;13.10;;;;;;;19.68;79.34;100719.66;1793300;80;21062;-64
2021/07/02 00:21:05;;;;;;;21.95;12.23;;;;;;;19.63;79.59;100721.83;1793098;80;21141;-64
2021/07/02 00:23:34;;;;;;;20.90;12.15;;;;;;;19.58;79.81;100713.31;1793390;80;21514;-64
2021/07/02 00:26:03;;;;;;;23.85;12.43;;;;;;;19.57;79.92;100714.30;1793393;80;21071;-64
2021/07/02 00:28:31;;;;;;;27.93;13.60;;;;;;;19.54;79.85;100708.34;1793403;80;21511;-64
2021/07/02 00:31:00;;;;;;;26.87;14.13;;;;;;;19.58;80.03;100709.31;1793506;80;21067;-64
2021/07/02 00:33:29;;;;;;;24.77;13.25;;;;;;;19.62;79.74;100703.25;1793347;79;21118;-64
2021/07/02 00:35:57;;;;;;;27.93;13.58;;;;;;;19.62;79.83;100710.80;1793333;80;21078;-64
2021/07/02 00:38:26;;;;;;;21.45;12.20;;;;;;;19.61;79.58;100707.75;1793395;80;21164;-64
2021/07/02 00:40:56;;;;;;;23.30;14.35;;;;;;;19.61;79.27;100711.75;1793334;80;21543;-64
2021/07/02 00:43:25;;;;;;;32.60;20.55;;;;;;;19.60;79.46;100706.53;1793436;80;21161;-64
2021/07/02 00:45:54;;;;;;;31.82;18.23;;;;;;;19.58;79.87;100701.79;1793291;80;21075;-64
2021/07/02 00:48:23;;;;;;;30.15;18.07;;;;;;;19.55;80.03;100700.68;1793532;80;22218;-64
2021/07/02 00:50:54;;;;;;;37.70;19.12;;;;;;;19.55;80.19;100695.34;1763071;80;21153;-64
2021/07/02 00:53:23;;;;;;;43.35;21.60;;;;;;;19.51;80.25;100689.88;1793129;80;21161;-65
2021/07/02 00:55:54;;;;;;;36.63;17.70;;;;;;;19.50;80.43;100694.87;1793337;80;21105;-64
2021/07/02 00:58:24;;;;;;;21.12;12.10;;;;;;;19.46;80.71;100694.26;1793471;80;21560;-64
2021/07/02 01:00:54;;;;;;;21.35;11.30;;;;;;;19.41;80.69;100694.59;1793464;80;21035;-64
2021/07/02 01:03:23;;;;;;;19.45;11.38;;;;;;;19.41;80.54;100699.09;1793179;80;21129;-65
2021/07/02 01:05:52;;;;;;;20.97;11.15;;;;;;;19.34;80.50;100692.03;1794322;78;21134;-65
2021/07/02 01:08:23;;;;;;;21.90;11.10;;;;;;;19.24;80.77;100688.37;1793521;80;21067;-64
2021/07/02 01:10:53;;;;;;;22.20;11.53;;;;;;;19.16;81.05;100688.94;1793650;80;21137;-64
2021/07/02 01:13:22;;;;;;;19.98;11.20;;;;;;;19.13;81.06;100689.69;1793439;80;21066;-64
2021/07/02 01:15:55;;;;;;;25.05;13.28;;;;;;;19.08;81.43;100686.02;1793406;80;21114;-63
2021/07/02 01:18:25;;;;;;;22.48;12.25;;;;;;;19.10;81.57;100678.25;1793345;80;21067;-62
2021/07/02 01:20:56;;;;;;;37.88;16.35;;;;;;;19.15;81.45;100673.91;1793706;80;21086;-62
2021/07/02 01:23:27;;;;;;;43.42;22.10;;;;;;;19.18;81.21;100667.02;1793539;80;21091;-65
2021/07/02 01:25:58;;;;;;;55.30;24.52;;;;;;;19.20;81.21;100670.41;1793381;80;21553;-64
2021/07/02 01:28:26;;;;;;;40.33;19.95;;;;;;;19.23;81.27;100672.83;1793570;80;21043;-64
2021/07/02 01:30:55;;;;;;;32.42;19.42;;;;;;;19.25;81.06;100673.55;1793298;80;21092;-64
2021/07/02 01:33:24;;;;;;;26.15;15.90;;;;;;;19.21;81.27;100674.77;1793415;80;21082;-64
2021/07/02 01:35:53;;;;;;;26.90;14.40;;;;;;;19.21;81.18;100684.59;1795130;79;21094;-64
2021/07/02 01:38:22;;;;;;;25.17;13.08;;;;;;;19.17;81.18;100678.64;1793234;80;21079;-64
2021/07/02 01:40:53;;;;;;;25.50;14.55;;;;;;;19.15;81.42;100673.91;1793044;80;21091;-64
2021/07/02 01:43:22;;;;;;;21.95;12.05;;;;;;;19.15;81.25;100672.58;1792964;80;21579;-64
2021/07/02 01:45:52;;;;;;;22.82;11.93;;;;;;;19.17;81.14;100670.63;1793521;80;21123;-64
2021/07/02 01:48:22;;;;;;;22.25;13.22;;;;;;;19.17;80.95;100663.96;1794157;79;21078;-64
2021/07/02 01:50:51;;;;;;;19.87;11.70;;;;;;;19.10;80.98;100666.73;1793417;80;21554;-64
2021/07/02 01:53:20;;;;;;;22.45;11.30;;;;;;;19.01;81.46;100666.09;1793415;80;21094;-64
2021/07/02 01:55:51;;;;;;;21.40;11.70;;;;;;;18.98;81.56;100671.19;1793341;80;21066;-65
2021/07/02 01:58:20;;;;;;;18.70;11.08;;;;;;;19.02;81.53;100664.65;1792985;80;21505;-64
2021/07/02 02:00:59;;;;;;;23.30;12.07;;;;;;;19.04;81.48;100657.87;1773247;80;21062;-64
2021/07/02 02:03:28;;;;;;;29.63;14.10;;;;;;;19.05;81.32;100655.09;1793422;80;21623;-64
2021/07/02 02:05:59;;;;;;;19.98;12.93;;;;;;;19.06;81.42;100659.44;1793442;80;21592;-64
2021/07/02 02:08:28;;;;;;;22.48;11.95;;;;;;;19.07;81.34;100649.61;1813252;78;21087;-64
2021/07/02 02:10:58;;;;;;;23.80;12.13;;;;;;;19.07;81.36;100655.81;1813661;79;21447;-64
2021/07/02 02:13:28;;;;;;;22.87;11.75;;;;;;;19.12;81.32;100652.78;1813236;78;21102;-64
2021/07/02 02:15:58;;;;;;;24.05;11.70;;;;;;;19.18;81.22;100647.00;1812290;79;21068;-64
2021/07/02 02:18:28;;;;;;;22.35;11.68;;;;;;;19.25;80.98;100657.54;1813480;79;21207;-64
2021/07/02 02:20:58;;;;;;;19.20;10.63;;;;;;;19.30;80.79;100662.54;1813328;79;21552;-65
2021/07/02 02:23:27;;;;;;;18.80;11.18;;;;;;;19.33;80.61;100652.97;1813471;78;21092;-64
2021/07/02 02:25:56;;;;;;;18.73;10.03;;;;;;;19.39;80.43;100652.98;1813483;79;21105;-64
2021/07/02 02:28:26;;;;;;;20.08;10.60;;;;;;;19.46;80.27;100652.88;1813362;78;21040;-64
2021/07/02 02:30:56;;;;;;;19.73;10.93;;;;;;;19.50;80.09;100647.64;1813500;79;21060;-64
2021/07/02 02:33:25;;;;;;;20.43;9.63;;;;;;;19.56;79.94;100647.16;1813460;79;21500;-64
2021/07/02 02:35:54;;;;;;;20.85;11.00;;;;;;;19.63;79.74;100641.70;1813577;78;21100;-63
2021/07/02 02:38:23;;;;;;;21.33;9.95;;;;;;;19.72;79.57;100646.81;1813474;79;21499;-63
2021/07/02 02:40:53;;;;;;;21.30;10.00;;;;;;;19.81;79.31;100646.61;1813495;79;21051;-63
2021/07/02 02:43:22;;;;;;;19.17;9.98;;;;;;;19.92;79.18;100647.94;1813458;78;21056;-63
2021/07/02 02:45:51;;;;;;;19.73;10.88;;;;;;;20.02;78.89;100644.03;1813356;79;21097;-64
2021/07/02 02:48:20;;;;;;;36.83;19.80;;;;;;;20.14;78.67;100640.84;1813509;79;21060;-64
2021/07/02 02:50:49;;;;;;;37.40;20.85;;;;;;;20.26;77.93;100650.55;1813524;78;21183;-63
2021/07/02 02:53:18;;;;;;;47.38;27.93;;;;;;;20.40;77.41;100645.43;1813400;79;21069;-63
2021/07/02 02:55:47;;;;;;;58.42;33.48;;;;;;;20.48;77.23;100641.63;1813506;79;21088;-63
2021/07/02 02:58:16;;;;;;;51.15;27.55;;;;;;;20.51;77.14;100637.83;1813459;78;21093;-63
2021/07/02 03:00:45;;;;;;;33.88;18.82;;;;;;;20.59;76.96;100630.04;1813369;79;21108;-64
2021/07/02 03:03:15;;;;;;;32.03;14.93;;;;;;;20.65;76.71;100636.24;1813446;79;21173;-63
2021/07/02 03:05:43;;;;;;;30.70;14.33;;;;;;;20.75;76.62;100633.17;1813422;78;21037;-64
2021/07/02 03:08:13;;;;;;;24.47;12.58;;;;;;;20.90;76.53;100635.55;1796545;79;21177;-63
2021/07/02 03:10:43;;;;;;;22.37;12.60;;;;;;;21.06;76.38;100627.88;1784353;79;21108;-64
2021/07/02 03:13:12;;;;;;;26.70;10.85;;;;;;;21.23;76.08;100631.83;1785350;80;21482;-65
2021/07/02 03:15:41;;;;;;;27.95;13.03;;;;;;;21.36;75.82;100623.59;1785439;80;21059;-64
2021/07/02 03:18:10;;;;;;;21.02;12.18;;;;;;;21.42;75.08;100617.69;1785337;80;21098;-64
2021/07/02 03:20:39;;;;;;;25.95;12.00;;;;;;;21.45;74.97;100615.25;1785419;80;21118;-64
2021/07/02 03:23:08;;;;;;;23.80;12.35;;;;;;;21.58;75.08;100622.10;1785315;80;21071;-64
2021/07/02 03:25:37;;;;;;;19.55;11.60;;;;;;;21.81;75.15;100615.70;1761187;80;21055;-63
2021/07/02 03:28:06;;;;;;;26.17;11.00;;;;;;;21.99;74.83;100618.09;1785376;80;21091;-63
2021/07/02 03:30:36;;;;;;;29.25;10.93;;;;;;;22.13;74.58;100614.16;1785331;80;21192;-63
2021/07/02 03:33:05;;;;;;;23.95;12.20;;;;;;;22.29;74.06;100613.66;1785503;80;21125;-63
2021/07/02 03:35:34;;;;;;;18.20;10.80;;;;;;;22.42;73.75;100621.45;1785341;80;21176;-63
2021/07/02 03:38:04;;;;;;;22.17;11.22;;;;;;;22.55;73.55;100619.33;1785193;80;21549;-63
2021/07/02 03:40:34;;;;;;;23.07;11.45;;;;;;;22.68;73.28;100626.59;1785366;80;21143;-63
2021/07/02 03:43:04;;;;;;;17.48;9.83;;;;;;;22.84;73.09;100631.91;1785483;80;21058;-64
2021/07/02 03:45:33;;;;;;;17.23;9.83;;;;;;;23.01;72.60;100629.83;1785368;79;21062;-63
2021/07/02 03:48:04;;;;;;;34.55;12.68;;;;;;;23.11;72.10;100630.71;1785348;80;21111;-63
2021/07/02 03:50:34;;;;;;;26.10;12.65;;;;;;;23.24;71.50;100630.88;1785066;80;21185;-63
2021/07/02 03:53:03;;;;;;;14.47;8.30;;;;;;;23.35;71.21;100633.42;1785387;80;21087;-63
2021/07/02 03:55:32;;;;;;;17.32;8.83;;;;;;;23.49;70.79;100630.24;1785368;80;21142;-63
2021/07/02 03:58:01;;;;;;;23.02;10.00;;;;;;;23.50;70.20;100630.61;1785321;80;21624;-63
2021/07/02 04:00:29;;;;;;;14.55;9.20;;;;;;;23.57;69.89;100625.50;1785264;80;21184;-63
2021/07/02 04:02:58;;;;;;;20.95;9.18;;;;;;;23.64;69.60;100629.77;1785217;80;21035;-65
2021/07/02 04:05:27;;;;;;;29.77;9.80;;;;;;;23.75;69.40;100628.23;1785290;80;21134;-63
2021/07/02 04:07:56;;;;;;;21.50;9.20;;;;;;;23.88;68.97;100634.65;1791721;78;21080;-63
2021/07/02 04:10:24;;;;;;;19.87;8.95;;;;;;;24.07;68.69;100627.84;1818788;79;21134;-63
2021/07/02 04:12:53;;;;;;;15.93;8.53;;;;;;;24.33;68.31;100625.77;1813687;79;21056;-63
2021/07/02 04:15:22;;;;;;;18.85;8.60;;;;;;;24.57;68.02;100618.97;1813678;79;21091;-63
2021/07/02 04:17:51;;;;;;;15.08;7.75;;;;;;;24.81;67.58;100621.03;1813561;79;21032;-63
2021/07/02 04:20:20;;;;;;;19.80;7.90;;;;;;;25.04;67.03;100622.72;1813793;79;21143;-63
2021/07/02 04:22:49;;;;;;;17.30;8.50;;;;;;;25.30;66.43;100627.30;1813646;79;21107;-63
2021/07/02 04:25:17;;;;;;;21.23;8.10;;;;;;;25.61;65.75;100618.22;1813654;79;21049;-63
2021/07/02 04:27:46;;;;;;;22.17;8.98;;;;;;;25.94;64.91;100617.05;1813657;79;21008;-63
2021/07/02 04:30:15;;;;;;;18.48;9.23;;;;;;;26.24;63.75;100616.12;1813687;79;21088;-63
2021/07/02 04:32:44;;;;;;;18.92;9.63;;;;;;;26.48;62.98;100618.84;1813741;79;21099;-63
2021/07/02 04:35:14;;;;;;;19.30;10.13;;;;;;;26.80;62.17;100617.24;1813662;79;21106;-63
2021/07/02 04:37:43;;;;;;;23.40;10.98;;;;;;;27.07;61.35;100620.59;1813779;79;21025;-63
2021/07/02 04:40:12;;;;;;;21.17;9.90;;;;;;;27.31;60.76;100617.86;1813772;79;21111;-63
2021/07/02 04:42:42;;;;;;;23.73;10.10;;;;;;;27.60;60.34;100621.85;1813635;79;21032;-64
2021/07/02 04:45:10;;;;;;;14.87;8.20;;;;;;;27.94;59.45;100616.66;1813651;79;21541;-63
2021/07/02 04:47:39;;;;;;;12.60;8.00;;;;;;;28.13;58.32;100618.59;1813626;79;21140;-63
2021/07/02 04:50:09;;;;;;;8.05;5.85;;;;;;;28.33;57.46;100620.34;1813761;79;21009;-63
2021/07/02 04:52:38;;;;;;;9.98;5.45;;;;;;;28.52;56.74;100619.05;1813699;79;21119;-62
2021/07/02 04:55:08;;;;;;;13.90;6.03;;;;;;;28.58;55.15;100604.81;1813524;79;21056;-63
2021/07/02 04:57:36;;;;;;;9.78;5.72;;;;;;;28.61;54.57;100603.10;1813355;79;21127;-63
2021/07/02 05:00:06;;;;;;;15.50;5.70;;;;;;;28.69;54.45;100608.44;1813583;79;21511;-63
2021/07/02 05:02:35;;;;;;;13.18;5.75;;;;;;;28.84;54.10;100603.89;1813645;79;21056;-63
2021/07/02 05:05:05;;;;;;;16.80;6.47;;;;;;;28.99;54.24;100601.22;1813653;79;21064;-63
2021/07/02 05:07:34;;;;;;;13.22;6.60;;;;;;;29.23;53.63;100601.55;1813639;79;21008;-63
2021/07/02 05:10:05;;;;;;;11.75;5.85;;;;;;;29.52;53.40;100600.38;1797351;79;21161;-63
2021/07/02 05:12:34;;;;;;;10.28;5.85;;;;;;;29.81;52.85;100604.97;1790736;80;21142;-63
2021/07/02 05:15:04;;;;;;;12.00;5.60;;;;;;;29.95;52.18;100601.89;1790923;80;21556;-63
2021/07/02 05:17:33;;;;;;;12.25;6.08;;;;;;;30.19;52.06;100593.91;1787551;80;21036;-63
2021/07/02 05:20:03;;;;;;;9.23;5.42;;;;;;;30.44;50.94;100593.06;1785640;80;21039;-63
2021/07/02 05:22:31;;;;;;;11.55;5.47;;;;;;;30.57;51.03;100589.63;1785609;80;21129;-63
2021/07/02 05:25:00;;;;;;;17.05;6.75;;;;;;;30.86;50.44;100590.48;1785638;80;21226;-63
2021/07/02 05:27:29;;;;;;;10.00;6.00;;;;;;;31.01;49.48;100581.77;1785716;80;21161;-63
2021/07/02 05:29:57;;;;;;;11.40;6.37;;;;;;;31.22;49.45;100580.02;1785702;80;21146;-63
2021/07/02 05:32:26;;;;;;;11.75;5.80;;;;;;;31.38;48.27;100581.06;1785969;80;21063;-63
2021/07/02 05:34:55;;;;;;;8.18;5.33;;;;;;;31.40;47.27;100582.23;1785536;80;21612;-63
2021/07/02 05:37:24;;;;;;;8.70;5.47;;;;;;;31.41;46.44;100579.81;1785646;80;21154;-63
2021/07/02 05:39:52;;;;;;;16.12;5.90;;;;;;;31.42;46.35;100576.06;1785726;80;21138;-62
2021/07/02 05:42:23;;;;;;;10.53;5.75;;;;;;;31.44;46.30;100578.89;1785683;80;21195;-63
2021/07/02 05:44:52;;;;;;;7.20;5.03;;;;;;;31.53;46.42;100577.71;1785751;80;21215;-62
2021/07/02 05:47:23;;;;;;;14.43;6.05;;;;;;;31.67;45.91;100575.05;1785583;79;21086;-63
2021/07/02 05:49:51;;;;;;;20.08;6.40;;;;;;;31.78;46.32;100566.33;1785725;79;21118;-62
2021/07/02 05:52:20;;;;;;;16.27;6.20;;;;;;;31.99;45.98;100562.61;1786074;80;21063;-63
2021/07/02 05:54:48;;;;;;;10.30;5.50;;;;;;;32.35;45.78;100571.51;1785635;80;21129;-63
2021/07/02 05:57:17;;;;;;;13.28;5.50;;;;;;;32.58;44.78;100572.52;1785658;80;21129;-62
2021/07/02 05:59:46;;;;;;;8.95;5.10;;;;;;;32.83;44.80;100568.62;1785682;80;21051;-63
2021/07/02 06:02:15;;;;;;;10.15;5.37;;;;;;;32.99;43.35;100573.64;1785622;79;21122;-62
2021/07/02 06:04:43;;;;;;;7.83;5.03;;;;;;;33.08;42.83;100571.53;1785605;80;21153;-62
2021/07/02 06:07:12;;;;;;;7.65;4.95;;;;;;;33.26;41.96;100570.91;1785456;80;21522;-62
2021/07/02 06:09:41;;;;;;;14.95;6.20;;;;;;;33.07;39.89;100576.66;1795061;78;21095;-62
2021/07/02 06:12:10;;;;;;;10.68;5.58;;;;;;;32.93;40.94;100567.68;1819727;79;21468;-62
2021/07/02 06:14:38;;;;;;;10.78;5.28;;;;;;;33.03;41.89;100561.78;1822003;79;21032;-62
2021/07/02 06:17:07;;;;;;;9.95;5.00;;;;;;;33.19;41.72;100562.73;1828152;78;21107;-62
2021/07/02 06:19:36;;;;;;;11.28;4.72;;;;;;;33.24;40.21;100559.37;1818295;78;21545;-62
2021/07/02 06:22:05;;;;;;;13.20;4.87;;;;;;;33.47;40.33;100556.97;1828114;78;21036;-62
2021/07/02 06:24:33;;;;;;;7.62;4.55;;;;;;;33.60;40.28;100544.34;1828276;78;21043;-62
2021/07/02 06:27:03;;;;;;;6.65;4.70;;;;;;;33.60;40.28;100544.34;1828088;78;21036;-62
2021/07/02 06:29:31;;;;;;;9.08;5.70;;;;;;;33.80;40.04;100553.30;1828104;78;21572;-62
2021/07/02 06:32:00;;;;;;;15.68;5.53;;;;;;;33.95;40.10;100553.00;1828118;78;21063;-62
2021/07/02 06:34:29;;;;;;;8.08;5.22;;;;;;;34.23;39.66;100548.57;1828122;78;21028;-62
2021/07/02 06:36:58;;;;;;;13.68;5.83;;;;;;;34.46;39.17;100547.14;1828154;78;21068;-62
2021/07/02 06:39:27;;;;;;;16.52;7.08;;;;;;;34.68;39.16;100544.02;1827966;78;21055;-62
2021/07/02 06:41:55;;;;;;;10.03;4.75;;;;;;;34.92;38.35;100541.81;1828068;78;21060;-62
2021/07/02 06:44:24;;;;;;;12.30;5.58;;;;;;;34.90;37.74;100543.11;1828225;78;21060;-62
2021/07/02 06:46:53;;;;;;;13.53;6.80;;;;;;;34.76;37.02;100535.55;1828113;78;21056;-62
2021/07/02 06:49:22;;;;;;;12.45;5.20;;;;;;;34.80;37.32;100546.34;1828191;78;21120;-62
2021/07/02 06:51:51;;;;;;;9.20;5.17;;;;;;;34.76;37.01;100535.55;1828031;78;21114;-64
2021/07/02 06:54:20;;;;;;;10.68;5.03;;;;;;;35.09;36.95;100535.75;1828064;78;21032;-62
2021/07/02 06:57:01;;;;;;;10.45;5.75;;;;;;;35.21;36.61;100538.05;1828211;78;21028;-61
2021/07/02 11:13:00;;;;;;;7.95;3.87;;;;;;;34.32;34.16;100318.75;1795284;78;21525;-61
2021/07/02 11:15:29;;;;;;;19.67;3.50;;;;;;;34.37;34.47;100327.11;1793255;80;21136;-61
2021/07/02 11:18:13;;;;;;;6.30;3.60;;;;;;;34.52;34.40;100330.83;1793428;80;21074;-61
2021/07/02 11:20:42;;;;;;;11.95;3.52;;;;;;;34.61;33.98;100325.36;1793247;80;21062;-63
2021/07/02 11:23:20;;;;;;;6.12;3.27;;;;;;;34.64;34.02;100310.38;1793306;80;21169;-61
2021/07/02 11:26:00;;;;;;;5.30;3.67;;;;;;;34.78;34.31;100321.49;1793513;80;21047;-60
2021/07/02 11:28:47;;;;;;;6.90;3.42;;;;;;;34.79;34.04;100298.56;1793410;79;21137;-60
2021/07/02 11:31:15;;;;;;;5.65;3.02;;;;;;;34.85;33.73;100307.74;1793296;80;21608;-61
2021/07/02 11:33:44;;;;;;;8.98;3.10;;;;;;;35.04;33.99;100309.89;1793600;80;21144;-60
2021/07/02 11:36:15;;;;;;;11.10;3.35;;;;;;;35.16;33.73;100314.34;1793528;80;21039;-60
2021/07/02 11:38:52;;;;;;;8.93;4.03;;;;;;;35.12;33.76;100313.15;1793533;79;21083;-60
2021/07/02 11:44:14;;;;;;;9.50;3.25;;;;;;;35.14;33.61;100308.81;1828315;78;21069;-60
2021/07/02 11:46:43;;;;;;;6.62;3.10;;;;;;;34.89;33.80;100307.03;1826315;77;21176;-60
2021/07/02 11:49:12;;;;;;;5.45;3.15;;;;;;;34.79;33.63;100310.33;1826424;78;21029;-61
2021/07/02 11:51:40;;;;;;;7.33;3.58;;;;;;;34.63;33.75;100303.27;1826233;78;21074;-61
2021/07/02 11:54:09;;;;;;;4.62;3.12;;;;;;;34.51;34.16;100296.34;1826977;77;21062;-61
2021/07/02 11:56:40;;;;;;;10.65;3.77;;;;;;;34.44;34.57;100292.34;1826330;78;21472;-61
2021/07/02 11:59:12;;;;;;;9.65;3.47;;;;;;;34.44;34.57;100292.34;1826494;78;21053;-61
2021/07/02 12:01:45;;;;;;;6.37;3.42;;;;;;;34.49;34.77;100301.81;1826625;78;21141;-61
2021/07/02 12:04:19;;;;;;;8.93;4.28;;;;;;;34.51;34.58;100301.81;1826281;78;21053;-60
2021/07/02 12:06:52;;;;;;;7.00;3.52;;;;;;;34.43;34.20;100300.22;1826305;78;21149;-61
2021/07/02 12:09:27;;;;;;;10.48;4.15;;;;;;;34.39;34.38;100308.58;1826236;78;21546;-61
2021/07/02 12:12:00;;;;;;;5.22;3.67;;;;;;;34.36;34.76;100304.92;1826299;78;21049;-60
2021/07/02 12:14:36;;;;;;;6.22;3.95;;;;;;;34.32;34.87;100299.08;1826347;78;21488;-61
2021/07/02 12:17:06;;;;;;;9.60;3.62;;;;;;;34.31;34.76;100304.80;1826494;78;21525;-61
2021/07/02 12:19:37;;;;;;;10.70;4.50;;;;;;;34.25;34.82;100310.61;1826629;78;21169;-61
2021/07/02 12:22:14;;;;;;;6.42;4.00;;;;;;;34.22;34.69;100301.52;1826627;78;21058;-60
2021/07/02 12:24:48;;;;;;;4.28;2.92;;;;;;;34.23;34.66;100295.84;1826560;78;21041;-60
2021/07/02 12:27:22;;;;;;;4.95;3.22;;;;;;;34.21;34.64;100294.37;1826468;78;21025;-60
2021/07/02 12:29:56;;;;;;;4.80;3.33;;;;;;;34.13;34.74;100295.48;1826382;78;21128;-61
2021/07/02 12:32:30;;;;;;;3.77;3.20;;;;;;;34.08;34.86;100292.59;1826693;78;21160;-61
2021/07/02 12:34:55;;;;;;;6.28;3.02;;;;;;;34.09;35.02;100304.37;1825466;78;21196;-61
2021/07/02 12:37:26;;;;;;;3.85;2.52;;;;;;;34.08;34.88;100292.59;1826636;78;21022;-61
2021/07/02 12:39:57;;;;;;;7.30;3.55;;;;;;;34.07;34.96;100288.20;1826520;78;21069;-61
2021/07/02 12:42:39;;;;;;;5.53;3.75;;;;;;;34.03;35.07;100293.28;1826860;77;21057;-61
2021/07/02 12:45:14;;;;;;;5.40;3.77;;;;;;;34.00;34.85;100290.98;1847238;77;21050;-61
2021/07/02 12:47:43;;;;;;;7.78;3.10;;;;;;;33.97;35.25;100296.06;1845516;77;21039;-61
2021/07/02 12:50:18;;;;;;;8.90;3.22;;;;;;;33.95;35.09;100287.27;1845958;77;21075;-61
2021/07/02 12:55:41;;;;;;;5.53;3.15;;;;;;;34.02;34.22;100288.03;1846378;77;21039;-60
2021/07/02 12:58:10;;;;;;;5.05;2.90;;;;;;;34.03;34.13;100288.32;1846090;77;21551;-60
2021/07/02 13:00:39;;;;;;;6.95;3.33;;;;;;;34.06;34.17;100281.05;1847124;77;21077;-61
2021/07/02 13:03:09;;;;;;;6.37;4.08;;;;;;;33.95;33.99;100281.80;1843802;78;21062;-61
2021/07/02 13:05:40;;;;;;;5.35;3.42;;;;;;;33.94;34.04;100286.94;1844160;78;21119;-61
2021/07/02 13:08:15;;;;;;;5.33;3.20;;;;;;;33.95;33.74;100279.06;1845991;78;21120;-60
2021/07/02 13:10:52;;;;;;;11.30;3.58;;;;;;;33.96;34.04;100279.39;1846943;77;21070;-60
2021/07/02 13:13:26;;;;;;;6.75;3.62;;;;;;;33.99;33.95;100274.81;1846008;77;21513;-61
2021/07/02 13:15:57;;;;;;;8.50;3.12;;;;;;;33.99;33.68;100274.81;1845944;77;21149;-61
2021/07/02 13:18:37;;;;;;;4.97;3.10;;;;;;;33.97;33.69;100274.22;1845781;78;21054;-60
2021/07/02 13:21:32;;;;;;;6.00;3.55;;;;;;;33.95;33.44;100263.51;1844098;78;21533;-60
2021/07/02 13:24:02;;;;;;;4.80;2.77;;;;;;;33.91;33.03;100269.66;1845782;78;21136;-61
2021/07/02 13:26:33;;;;;;;10.03;3.75;;;;;;;33.87;32.97;100268.45;1846485;77;21117;-60
2021/07/02 13:29:07;;;;;;;7.03;3.17;;;;;;;33.84;32.92;100263.72;1845501;77;21077;-61
2021/07/02 13:31:39;;;;;;;5.20;3.17;;;;;;;33.80;33.04;100263.87;1846040;77;21058;-61
2021/07/02 13:34:16;;;;;;;6.03;3.10;;;;;;;33.77;32.86;100267.07;1845914;77;21059;-60
2021/07/02 13:36:56;;;;;;;7.10;3.15;;;;;;;33.75;32.74;100267.80;1845176;78;21486;-61
2021/07/02 13:39:27;;;;;;;6.53;3.70;;;;;;;33.77;33.04;100258.88;1834511;78;21050;-61
2021/07/02 13:42:08;;;;;;;7.63;3.83;;;;;;;33.77;33.04;100261.61;1846184;76;21090;-61
2021/07/02 13:44:45;;;;;;;8.13;3.35;;;;;;;33.77;33.29;100260.75;1841943;77;21102;-61
2021/07/02 13:47:18;;;;;;;8.73;3.83;;;;;;;33.77;33.31;100266.21;1836448;78;21051;-61
2021/07/02 13:49:46;;;;;;;11.17;3.63;;;;;;;33.73;32.97;100267.19;1840580;77;21066;-61
2021/07/02 13:52:15;;;;;;;9.25;3.52;;;;;;;33.72;33.18;100257.88;1840147;78;21366;-60
2021/07/02 13:54:44;;;;;;;6.55;3.55;;;;;;;33.71;33.15;100257.02;1840159;78;21083;-60
2021/07/02 13:57:15;;;;;;;5.47;3.33;;;;;;;33.69;32.95;100260.52;1840203;78;21051;-61
2021/07/02 13:59:44;;;;;;;8.38;3.37;;;;;;;33.68;33.15;100257.49;1840221;78;21027;-61
2021/07/02 14:02:12;;;;;;;39.18;8.40;;;;;;;33.66;33.06;100251.39;1840239;78;21478;-61
2021/07/02 14:04:41;;;;;;;9.08;3.83;;;;;;;33.63;33.30;100257.30;1840203;77;21070;-60
2021/07/02 14:07:10;;;;;;;9.05;4.00;;;;;;;33.60;33.52;100252.27;1840198;78;21062;-60
2021/07/02 14:09:39;;;;;;;5.78;3.50;;;;;;;33.56;33.47;100246.96;1840093;78;21180;-63
2021/07/02 14:12:08;;;;;;;13.60;4.75;;;;;;;33.51;33.35;100241.33;1840156;78;21109;-61
2021/07/02 14:14:37;;;;;;;7.87;4.17;;;;;;;33.48;33.56;100239.89;1840185;78;21059;-61
2021/07/02 14:17:06;;;;;;;7.72;4.33;;;;;;;33.47;33.51;100245.03;1840285;78;21047;-61
2021/07/02 14:19:35;;;;;;;6.95;4.67;;;;;;;33.44;33.71;100239.50;1840205;78;21050;-61
2021/07/02 14:22:05;;;;;;;8.08;4.70;;;;;;;33.40;33.91;100235.55;1840378;78;21055;-61
2021/07/02 14:24:34;;;;;;;7.08;3.10;;;;;;;33.36;34.37;100242.48;1840130;78;21051;-61
2021/07/02 14:27:03;;;;;;;6.97;3.20;;;;;;;33.35;34.17;100231.28;1840172;78;21063;-61
2021/07/02 14:29:32;;;;;;;7.45;3.25;;;;;;;33.32;34.14;100233.09;1840266;78;21055;-61
2021/07/02 14:32:00;;;;;;;9.35;3.75;;;;;;;33.29;34.20;100228.06;1840141;78;21145;-60
2021/07/02 14:34:29;;;;;;;7.47;3.37;;;;;;;33.26;33.65;100232.63;1840174;78;21126;-61
2021/07/02 14:36:58;;;;;;;5.33;3.20;;;;;;;33.22;33.29;100230.03;1840074;78;21031;-61
2021/07/02 14:39:28;;;;;;;8.83;3.90;;;;;;;33.20;33.56;100228.03;1840177;77;21066;-61
2021/07/02 14:41:57;;;;;;;12.28;4.97;;;;;;;33.17;34.65;100230.69;1840172;78;21502;-61
2021/07/02 14:44:25;;;;;;;8.83;4.40;;;;;;;33.07;36.42;100221.61;1833991;77;21085;-61
2021/07/02 14:46:54;;;;;;;11.93;4.30;;;;;;;33.05;36.82;100216.91;1817534;79;21473;-61
2021/07/02 14:49:24;;;;;;;7.65;4.65;;;;;;;33.02;37.07;100215.97;1817467;79;21026;-60
2021/07/02 14:51:53;;;;;;;9.43;4.40;;;;;;;32.98;37.46;100216.11;1817540;79;21547;-60
2021/07/02 14:54:21;;;;;;;8.83;5.12;;;;;;;32.90;37.54;100214.99;1817683;78;21131;-60
2021/07/02 14:56:51;;;;;;;7.20;4.20;;;;;;;32.86;37.83;100216.49;1817559;78;21552;-60
2021/07/02 14:59:20;;;;;;;6.95;4.03;;;;;;;32.82;38.40;100210.64;1817649;78;21116;-61
2021/07/02 15:01:49;;;;;;;8.73;4.12;;;;;;;32.78;38.53;100218.12;1817561;79;21131;-61
2021/07/02 15:04:17;;;;;;;7.15;4.12;;;;;;;32.73;39.09;100217.41;1817561;79;21108;-61
2021/07/02 15:06:46;;;;;;;9.18;4.37;;;;;;;32.67;39.46;100209.58;1817612;79;21078;-60
2021/07/02 15:09:15;;;;;;;6.92;4.20;;;;;;;32.62;39.63;100216.20;1817566;78;21049;-60
2021/07/02 15:11:43;;;;;;;9.60;4.55;;;;;;;32.57;39.05;100213.26;1817544;79;21140;-60
2021/07/02 15:14:12;;;;;;;8.45;4.42;;;;;;;32.53;39.44;100220.20;1817518;79;21116;-61
2021/07/02 15:16:41;;;;;;;8.28;4.17;;;;;;;32.46;39.78;100219.39;1849569;77;21109;-61
2021/07/02 15:19:10;;;;;;;8.23;4.47;;;;;;;32.42;39.97;100219.52;1838107;77;21112;-61
2021/07/02 15:21:39;;;;;;;5.78;3.87;;;;;;;32.32;40.64;100218.09;1817652;79;21046;-62
2021/07/02 15:24:08;;;;;;;5.25;3.80;;;;;;;32.26;40.42;100216.25;1817661;77;21070;-60
2021/07/02 15:26:40;;;;;;;7.75;4.33;;;;;;;32.21;40.51;100217.41;1817619;79;21038;-60
2021/07/02 15:29:07;;;;;;;7.37;3.90;;;;;;;32.16;40.41;100219.94;1817471;78;21631;-60
2021/07/02 15:32:12;;;;;;;10.50;4.37;;;;;;;32.15;40.41;100216.06;1817518;79;21077;-60
2021/07/02 15:34:41;;;;;;;8.88;4.95;;;;;;;32.13;40.36;100212.22;1817501;79;21050;-60
2021/07/02 15:37:10;;;;;;;8.85;4.28;;;;;;;32.11;40.65;100229.27;1817509;78;21066;-60
2021/07/02 15:39:39;;;;;;;9.78;4.53;;;;;;;32.06;40.81;100219.56;1817482;79;21131;-60
2021/07/02 15:42:08;;;;;;;8.15;4.30;;;;;;;32.03;41.17;100217.26;1817621;78;21053;-60
2021/07/02 15:44:38;;;;;;;9.08;5.30;;;;;;;32.00;41.21;100219.00;1818820;76;21496;-60
2021/07/02 15:47:07;;;;;;;6.62;4.12;;;;;;;31.96;41.45;100216.41;1852279;77;21051;-60
2021/07/02 15:49:36;;;;;;;9.48;3.98;;;;;;;31.89;41.61;100210.46;1852214;77;21043;-60